sensor_id;sensor_type;location;lat;lon;timestamp;P1;durP1;ratioP1;P2;durP2;ratioP2
9374;SDS011;4727;51.202;6.344;2022-10-16T00:01:18;4.00;;;3.70;;
9374;SDS011;4727;51.202;6.344;2022-10-16T00:03:46;4.10;;;3.70;;
9374;SDS011;4727;51.202;6.344;2022-10-16T00:06:13;4.23;;;3.47;;
9374;SDS011;4727;51.202;6.344;2022-10-16T00:08:40;6.67;;;3.90;;
9374;SDS011;4727;51.202;6.344;2022-10-16T00:13:40;3.73;;;3.43;;
9374;SDS011;4727;51.202;6.344;2022-10-16T00:16:07;4.00;;;3.57;;
9374;SDS011;4727;51.202;6.344;2022-10-16T00:18:33;4.00;;;3.70;;
9374;SDS011;4727;51.202;6.344;2022-10-16T00:21:03;4.73;;;3.40;;
9374;SDS011;4727;51.202;6.344;2022-10-16T00:23:33;4.17;;;3.33;;
9374;SDS011;4727;51.202;6.344;2022-10-16T00:26:00;3.70;;;3.30;;
9374;SDS011;4727;51.202;6.344;2022-10-16T00:28:28;4.00;;;3.20;;
9374;SDS011;4727;51.202;6.344;2022-10-16T00:30:54;3.40;;;3.10;;
9374;SDS011;4727;51.202;6.344;2022-10-16T00:33:20;3.57;;;3.27;;
9374;SDS011;4727;51.202;6.344;2022-10-16T00:35:46;4.67;;;3.53;;
9374;SDS011;4727;51.202;6.344;2022-10-16T00:38:11;3.53;;;3.13;;
9374;SDS011;4727;51.202;6.344;2022-10-16T00:40:37;3.83;;;3.47;;
9374;SDS011;4727;51.202;6.344;2022-10-16T00:43:07;3.83;;;3.50;;
9374;SDS011;4727;51.202;6.344;2022-10-16T00:45:37;4.17;;;3.30;;
9374;SDS011;4727;51.202;6.344;2022-10-16T00:48:03;4.00;;;3.60;;
9374;SDS011;4727;51.202;6.344;2022-10-16T00:50:30;3.20;;;3.00;;
9374;SDS011;4727;51.202;6.344;2022-10-16T00:52:58;5.57;;;3.10;;
9374;SDS011;4727;51.202;6.344;2022-10-16T00:55:25;3.60;;;3.30;;
9374;SDS011;4727;51.202;6.344;2022-10-16T00:57:53;3.73;;;2.90;;
9374;SDS011;4727;51.202;6.344;2022-10-16T01:00:24;4.63;;;3.20;;
9374;SDS011;4727;51.202;6.344;2022-10-16T01:02:55;5.30;;;3.60;;
9374;SDS011;4727;51.202;6.344;2022-10-16T01:05:22;3.10;;;2.90;;
9374;SDS011;4727;51.202;6.344;2022-10-16T01:10:49;3.20;;;2.80;;
9374;SDS011;4727;51.202;6.344;2022-10-16T01:13:24;6.60;;;3.30;;
9374;SDS011;4727;51.202;6.344;2022-10-16T01:16:00;5.30;;;2.97;;
9374;SDS011;4727;51.202;6.344;2022-10-16T01:21:02;5.03;;;3.07;;
9374;SDS011;4727;51.202;6.344;2022-10-16T01:23:38;3.40;;;3.10;;
9374;SDS011;4727;51.202;6.344;2022-10-16T01:26:27;3.60;;;3.30;;
9374;SDS011;4727;51.202;6.344;2022-10-16T01:29:03;3.30;;;3.00;;
9374;SDS011;4727;51.202;6.344;2022-10-16T01:31:39;3.30;;;3.00;;
9374;SDS011;4727;51.202;6.344;2022-10-16T01:34:10;3.40;;;3.20;;
9374;SDS011;4727;51.202;6.344;2022-10-16T01:36:45;7.03;;;3.00;;
9374;SDS011;4727;51.202;6.344;2022-10-16T01:39:22;3.33;;;3.03;;
9374;SDS011;4727;51.202;6.344;2022-10-16T01:42:03;3.23;;;2.70;;
9374;SDS011;4727;51.202;6.344;2022-10-16T01:44:34;3.83;;;2.93;;
9374;SDS011;4727;51.202;6.344;2022-10-16T01:47:02;3.20;;;2.90;;
9374;SDS011;4727;51.202;6.344;2022-10-16T01:49:33;2.93;;;2.60;;
9374;SDS011;4727;51.202;6.344;2022-10-16T01:52:02;3.73;;;2.93;;
9374;SDS011;4727;51.202;6.344;2022-10-16T01:54:31;4.23;;;3.27;;
9374;SDS011;4727;51.202;6.344;2022-10-16T01:57:00;3.47;;;2.90;;
9374;SDS011;4727;51.202;6.344;2022-10-16T01:59:29;3.60;;;3.20;;
9374;SDS011;4727;51.202;6.344;2022-10-16T02:02:01;3.27;;;2.97;;
9374;SDS011;4727;51.202;6.344;2022-10-16T02:04:33;2.80;;;2.60;;
9374;SDS011;4727;51.202;6.344;2022-10-16T02:07:05;2.77;;;2.57;;
9374;SDS011;4727;51.202;6.344;2022-10-16T02:09:34;2.80;;;2.60;;
9374;SDS011;4727;51.202;6.344;2022-10-16T02:12:03;2.80;;;2.60;;
9374;SDS011;4727;51.202;6.344;2022-10-16T02:14:35;2.73;;;2.53;;
9374;SDS011;4727;51.202;6.344;2022-10-16T02:17:09;2.80;;;2.50;;
9374;SDS011;4727;51.202;6.344;2022-10-16T02:19:39;2.50;;;2.30;;
9374;SDS011;4727;51.202;6.344;2022-10-16T02:22:06;3.27;;;2.20;;
9374;SDS011;4727;51.202;6.344;2022-10-16T02:27:08;2.30;;;2.20;;
9374;SDS011;4727;51.202;6.344;2022-10-16T02:29:52;2.33;;;2.10;;
9374;SDS011;4727;51.202;6.344;2022-10-16T02:32:24;1.87;;;1.70;;
9374;SDS011;4727;51.202;6.344;2022-10-16T02:34:55;2.80;;;2.00;;
9374;SDS011;4727;51.202;6.344;2022-10-16T02:37:22;2.63;;;2.37;;
9374;SDS011;4727;51.202;6.344;2022-10-16T02:39:49;2.40;;;2.20;;
9374;SDS011;4727;51.202;6.344;2022-10-16T02:42:15;2.27;;;2.07;;
9374;SDS011;4727;51.202;6.344;2022-10-16T02:44:43;1.60;;;1.50;;
9374;SDS011;4727;51.202;6.344;2022-10-16T02:47:08;1.87;;;1.63;;
9374;SDS011;4727;51.202;6.344;2022-10-16T02:49:34;2.33;;;2.13;;
9374;SDS011;4727;51.202;6.344;2022-10-16T02:52:00;3.13;;;1.90;;
9374;SDS011;4727;51.202;6.344;2022-10-16T02:54:25;2.50;;;1.80;;
9374;SDS011;4727;51.202;6.344;2022-10-16T02:56:51;2.50;;;1.93;;
9374;SDS011;4727;51.202;6.344;2022-10-16T02:59:16;1.83;;;1.73;;
9374;SDS011;4727;51.202;6.344;2022-10-16T03:01:42;1.80;;;1.70;;
9374;SDS011;4727;51.202;6.344;2022-10-16T03:04:08;2.83;;;1.97;;
9374;SDS011;4727;51.202;6.344;2022-10-16T03:06:33;2.03;;;1.53;;
9374;SDS011;4727;51.202;6.344;2022-10-16T03:08:59;1.80;;;1.50;;
9374;SDS011;4727;51.202;6.344;2022-10-16T03:11:25;2.10;;;2.00;;
9374;SDS011;4727;51.202;6.344;2022-10-16T03:13:51;3.00;;;1.57;;
9374;SDS011;4727;51.202;6.344;2022-10-16T03:16:17;2.10;;;2.00;;
9374;SDS011;4727;51.202;6.344;2022-10-16T03:18:42;3.77;;;2.03;;
9374;SDS011;4727;51.202;6.344;2022-10-16T03:21:08;2.23;;;1.80;;
9374;SDS011;4727;51.202;6.344;2022-10-16T03:23:33;1.70;;;1.60;;
9374;SDS011;4727;51.202;6.344;2022-10-16T03:25:59;1.50;;;1.40;;
9374;SDS011;4727;51.202;6.344;2022-10-16T03:28:25;2.43;;;1.70;;
9374;SDS011;4727;51.202;6.344;2022-10-16T03:30:50;4.93;;;1.90;;
9374;SDS011;4727;51.202;6.344;2022-10-16T03:33:16;1.47;;;1.40;;
9374;SDS011;4727;51.202;6.344;2022-10-16T03:35:41;1.70;;;1.60;;
9374;SDS011;4727;51.202;6.344;2022-10-16T03:38:07;2.77;;;1.87;;
9374;SDS011;4727;51.202;6.344;2022-10-16T03:40:33;1.40;;;1.40;;
9374;SDS011;4727;51.202;6.344;2022-10-16T03:42:59;2.03;;;1.40;;
9374;SDS011;4727;51.202;6.344;2022-10-16T03:45:24;1.63;;;1.33;;
9374;SDS011;4727;51.202;6.344;2022-10-16T03:47:51;2.20;;;1.90;;
9374;SDS011;4727;51.202;6.344;2022-10-16T03:50:16;2.10;;;1.87;;
9374;SDS011;4727;51.202;6.344;2022-10-16T03:52:42;2.20;;;1.70;;
9374;SDS011;4727;51.202;6.344;2022-10-16T03:55:07;2.77;;;1.87;;
9374;SDS011;4727;51.202;6.344;2022-10-16T03:57:33;1.70;;;1.60;;
9374;SDS011;4727;51.202;6.344;2022-10-16T03:59:59;2.97;;;1.60;;
9374;SDS011;4727;51.202;6.344;2022-10-16T04:02:24;1.97;;;1.87;;
9374;SDS011;4727;51.202;6.344;2022-10-16T04:04:50;1.97;;;1.87;;
9374;SDS011;4727;51.202;6.344;2022-10-16T04:07:16;1.73;;;1.63;;
9374;SDS011;4727;51.202;6.344;2022-10-16T04:09:41;1.90;;;1.80;;
9374;SDS011;4727;51.202;6.344;2022-10-16T04:12:07;2.00;;;1.90;;
9374;SDS011;4727;51.202;6.344;2022-10-16T04:14:33;2.10;;;1.90;;
9374;SDS011;4727;51.202;6.344;2022-10-16T04:16:59;1.97;;;1.87;;
9374;SDS011;4727;51.202;6.344;2022-10-16T04:19:24;3.23;;;2.07;;
9374;SDS011;4727;51.202;6.344;2022-10-16T04:21:50;2.23;;;2.13;;
9374;SDS011;4727;51.202;6.344;2022-10-16T04:24:15;3.50;;;2.40;;
9374;SDS011;4727;51.202;6.344;2022-10-16T04:26:41;1.57;;;1.50;;
9374;SDS011;4727;51.202;6.344;2022-10-16T04:29:06;3.80;;;1.90;;
9374;SDS011;4727;51.202;6.344;2022-10-16T04:31:32;1.93;;;1.83;;
9374;SDS011;4727;51.202;6.344;2022-10-16T04:33:58;2.30;;;2.10;;
9374;SDS011;4727;51.202;6.344;2022-10-16T04:36:24;2.20;;;2.10;;
9374;SDS011;4727;51.202;6.344;2022-10-16T04:38:49;3.03;;;2.40;;
9374;SDS011;4727;51.202;6.344;2022-10-16T04:41:15;3.03;;;2.77;;
9374;SDS011;4727;51.202;6.344;2022-10-16T04:43:40;2.40;;;2.20;;
9374;SDS011;4727;51.202;6.344;2022-10-16T04:46:06;3.30;;;2.33;;
9374;SDS011;4727;51.202;6.344;2022-10-16T04:48:31;2.40;;;2.30;;
9374;SDS011;4727;51.202;6.344;2022-10-16T04:50:57;2.67;;;2.47;;
9374;SDS011;4727;51.202;6.344;2022-10-16T04:53:24;2.67;;;2.47;;
9374;SDS011;4727;51.202;6.344;2022-10-16T04:55:49;2.53;;;2.33;;
9374;SDS011;4727;51.202;6.344;2022-10-16T04:58:15;3.27;;;2.60;;
9374;SDS011;4727;51.202;6.344;2022-10-16T05:00:41;3.37;;;2.60;;
9374;SDS011;4727;51.202;6.344;2022-10-16T05:03:07;3.30;;;2.50;;
9374;SDS011;4727;51.202;6.344;2022-10-16T05:05:34;3.37;;;3.00;;
9374;SDS011;4727;51.202;6.344;2022-10-16T05:08:01;5.10;;;4.60;;
9374;SDS011;4727;51.202;6.344;2022-10-16T05:10:27;3.70;;;3.50;;
9374;SDS011;4727;51.202;6.344;2022-10-16T05:12:53;3.53;;;2.63;;
9374;SDS011;4727;51.202;6.344;2022-10-16T05:15:18;4.17;;;2.63;;
9374;SDS011;4727;51.202;6.344;2022-10-16T05:17:44;3.00;;;2.80;;
9374;SDS011;4727;51.202;6.344;2022-10-16T05:20:10;3.33;;;2.70;;
9374;SDS011;4727;51.202;6.344;2022-10-16T05:22:36;3.00;;;2.77;;
9374;SDS011;4727;51.202;6.344;2022-10-16T05:25:02;2.93;;;2.60;;
9374;SDS011;4727;51.202;6.344;2022-10-16T05:27:28;3.43;;;3.13;;
9374;SDS011;4727;51.202;6.344;2022-10-16T05:29:53;3.47;;;3.23;;
9374;SDS011;4727;51.202;6.344;2022-10-16T05:32:19;5.17;;;3.90;;
9374;SDS011;4727;51.202;6.344;2022-10-16T05:34:44;3.77;;;3.20;;
9374;SDS011;4727;51.202;6.344;2022-10-16T05:37:10;3.50;;;3.13;;
9374;SDS011;4727;51.202;6.344;2022-10-16T05:39:37;3.30;;;3.00;;
9374;SDS011;4727;51.202;6.344;2022-10-16T05:42:03;5.90;;;3.70;;
9374;SDS011;4727;51.202;6.344;2022-10-16T05:44:29;3.43;;;3.17;;
9374;SDS011;4727;51.202;6.344;2022-10-16T05:46:55;3.20;;;2.90;;
9374;SDS011;4727;51.202;6.344;2022-10-16T05:49:20;3.13;;;2.90;;
9374;SDS011;4727;51.202;6.344;2022-10-16T05:51:46;3.77;;;3.50;;
9374;SDS011;4727;51.202;6.344;2022-10-16T05:54:11;4.90;;;3.40;;
9374;SDS011;4727;51.202;6.344;2022-10-16T05:56:37;6.97;;;3.27;;
9374;SDS011;4727;51.202;6.344;2022-10-16T05:59:03;5.60;;;4.37;;
9374;SDS011;4727;51.202;6.344;2022-10-16T06:01:29;5.50;;;4.80;;
9374;SDS011;4727;51.202;6.344;2022-10-16T06:03:56;5.03;;;3.70;;
9374;SDS011;4727;51.202;6.344;2022-10-16T06:06:23;4.03;;;3.73;;
9374;SDS011;4727;51.202;6.344;2022-10-16T06:08:51;4.30;;;4.00;;
9374;SDS011;4727;51.202;6.344;2022-10-16T06:11:22;4.00;;;3.63;;
9374;SDS011;4727;51.202;6.344;2022-10-16T06:13:55;4.13;;;3.83;;
9374;SDS011;4727;51.202;6.344;2022-10-16T06:16:22;4.60;;;4.20;;
9374;SDS011;4727;51.202;6.344;2022-10-16T06:18:50;4.10;;;3.73;;
9374;SDS011;4727;51.202;6.344;2022-10-16T06:21:17;4.10;;;3.80;;
9374;SDS011;4727;51.202;6.344;2022-10-16T06:23:44;6.83;;;4.00;;
9374;SDS011;4727;51.202;6.344;2022-10-16T06:26:14;4.43;;;4.03;;
9374;SDS011;4727;51.202;6.344;2022-10-16T06:28:42;4.40;;;4.03;;
9374;SDS011;4727;51.202;6.344;2022-10-16T06:31:09;4.43;;;4.07;;
9374;SDS011;4727;51.202;6.344;2022-10-16T06:33:36;4.23;;;3.80;;
9374;SDS011;4727;51.202;6.344;2022-10-16T06:36:03;4.57;;;4.17;;
9374;SDS011;4727;51.202;6.344;2022-10-16T06:38:39;4.20;;;3.80;;
9374;SDS011;4727;51.202;6.344;2022-10-16T06:41:06;4.17;;;3.50;;
9374;SDS011;4727;51.202;6.344;2022-10-16T06:43:33;4.20;;;3.90;;
9374;SDS011;4727;51.202;6.344;2022-10-16T06:46:00;4.40;;;4.07;;
9374;SDS011;4727;51.202;6.344;2022-10-16T06:48:27;4.53;;;4.13;;
9374;SDS011;4727;51.202;6.344;2022-10-16T06:51:00;4.70;;;4.30;;
9374;SDS011;4727;51.202;6.344;2022-10-16T06:53:30;4.60;;;4.20;;
9374;SDS011;4727;51.202;6.344;2022-10-16T06:55:57;5.17;;;4.00;;
9374;SDS011;4727;51.202;6.344;2022-10-16T06:58:22;4.03;;;3.73;;
9374;SDS011;4727;51.202;6.344;2022-10-16T07:00:49;4.00;;;3.70;;
9374;SDS011;4727;51.202;6.344;2022-10-16T07:03:20;4.50;;;4.13;;
9374;SDS011;4727;51.202;6.344;2022-10-16T07:05:46;3.83;;;3.57;;
9374;SDS011;4727;51.202;6.344;2022-10-16T07:08:12;4.33;;;3.93;;
9374;SDS011;4727;51.202;6.344;2022-10-16T07:10:37;4.83;;;4.10;;
9374;SDS011;4727;51.202;6.344;2022-10-16T07:13:03;3.83;;;3.50;;
9374;SDS011;4727;51.202;6.344;2022-10-16T07:15:29;4.70;;;3.87;;
9374;SDS011;4727;51.202;6.344;2022-10-16T07:17:54;4.20;;;3.80;;
9374;SDS011;4727;51.202;6.344;2022-10-16T07:20:20;4.30;;;3.90;;
9374;SDS011;4727;51.202;6.344;2022-10-16T07:22:45;4.83;;;4.43;;
9374;SDS011;4727;51.202;6.344;2022-10-16T07:25:11;4.80;;;4.13;;
9374;SDS011;4727;51.202;6.344;2022-10-16T07:27:37;5.73;;;3.97;;
9374;SDS011;4727;51.202;6.344;2022-10-16T07:30:03;4.33;;;4.00;;
9374;SDS011;4727;51.202;6.344;2022-10-16T07:32:30;4.30;;;3.90;;
9374;SDS011;4727;51.202;6.344;2022-10-16T07:34:56;4.63;;;3.87;;
9374;SDS011;4727;51.202;6.344;2022-10-16T07:37:22;3.87;;;3.57;;
9374;SDS011;4727;51.202;6.344;2022-10-16T07:39:47;3.70;;;3.40;;
9374;SDS011;4727;51.202;6.344;2022-10-16T07:42:13;3.57;;;3.37;;
9374;SDS011;4727;51.202;6.344;2022-10-16T07:44:39;6.67;;;3.50;;
9374;SDS011;4727;51.202;6.344;2022-10-16T07:47:05;3.10;;;2.87;;
9374;SDS011;4727;51.202;6.344;2022-10-16T07:49:31;4.27;;;3.37;;
9374;SDS011;4727;51.202;6.344;2022-10-16T07:51:57;3.63;;;3.37;;
9374;SDS011;4727;51.202;6.344;2022-10-16T07:54:22;4.57;;;3.20;;
9374;SDS011;4727;51.202;6.344;2022-10-16T07:56:48;3.07;;;2.77;;
9374;SDS011;4727;51.202;6.344;2022-10-16T07:59:13;2.70;;;2.50;;
9374;SDS011;4727;51.202;6.344;2022-10-16T08:01:42;3.27;;;3.03;;
9374;SDS011;4727;51.202;6.344;2022-10-16T08:04:08;2.87;;;2.67;;
9374;SDS011;4727;51.202;6.344;2022-10-16T08:06:35;2.50;;;2.30;;
9374;SDS011;4727;51.202;6.344;2022-10-16T08:09:02;2.73;;;2.50;;
9374;SDS011;4727;51.202;6.344;2022-10-16T08:11:28;4.60;;;2.27;;
9374;SDS011;4727;51.202;6.344;2022-10-16T08:13:53;2.60;;;2.40;;
9374;SDS011;4727;51.202;6.344;2022-10-16T08:16:19;2.27;;;2.17;;
9374;SDS011;4727;51.202;6.344;2022-10-16T08:18:45;3.93;;;2.83;;
9374;SDS011;4727;51.202;6.344;2022-10-16T08:21:12;2.27;;;2.07;;
9374;SDS011;4727;51.202;6.344;2022-10-16T08:23:39;2.10;;;2.00;;
9374;SDS011;4727;51.202;6.344;2022-10-16T08:26:06;2.70;;;2.23;;
9374;SDS011;4727;51.202;6.344;2022-10-16T08:28:33;2.70;;;2.50;;
9374;SDS011;4727;51.202;6.344;2022-10-16T08:31:32;4.07;;;2.37;;
9374;SDS011;4727;51.202;6.344;2022-10-16T08:33:52;3.20;;;2.60;;
9374;SDS011;4727;51.202;6.344;2022-10-16T08:36:18;3.10;;;2.50;;
9374;SDS011;4727;51.202;6.344;2022-10-16T08:38:43;4.20;;;2.03;;
9374;SDS011;4727;51.202;6.344;2022-10-16T08:41:21;3.87;;;2.50;;
9374;SDS011;4727;51.202;6.344;2022-10-16T08:49:54;4.03;;;2.37;;
9374;SDS011;4727;51.202;6.344;2022-10-16T08:52:30;2.23;;;2.13;;
9374;SDS011;4727;51.202;6.344;2022-10-16T08:55:00;4.93;;;2.70;;
9374;SDS011;4727;51.202;6.344;2022-10-16T08:57:27;2.70;;;2.10;;
9374;SDS011;4727;51.202;6.344;2022-10-16T08:59:53;2.00;;;1.90;;
9374;SDS011;4727;51.202;6.344;2022-10-16T09:18:56;2.70;;;2.20;;
9374;SDS011;4727;51.202;6.344;2022-10-16T09:21:33;4.40;;;2.20;;
9374;SDS011;4727;51.202;6.344;2022-10-16T09:24:36;3.47;;;2.10;;
9374;SDS011;4727;51.202;6.344;2022-10-16T09:26:55;3.60;;;2.23;;
9374;SDS011;4727;51.202;6.344;2022-10-16T09:29:21;5.57;;;2.00;;
9374;SDS011;4727;51.202;6.344;2022-10-16T09:31:50;2.43;;;2.20;;
9374;SDS011;4727;51.202;6.344;2022-10-16T09:34:36;1.97;;;1.77;;
9374;SDS011;4727;51.202;6.344;2022-10-16T09:37:12;2.53;;;1.70;;
9374;SDS011;4727;51.202;6.344;2022-10-16T09:39:45;2.67;;;1.77;;
9374;SDS011;4727;51.202;6.344;2022-10-16T09:42:25;1.87;;;1.67;;
9374;SDS011;4727;51.202;6.344;2022-10-16T09:44:56;5.40;;;2.00;;
9374;SDS011;4727;51.202;6.344;2022-10-16T09:47:23;2.30;;;2.10;;
9374;SDS011;4727;51.202;6.344;2022-10-16T09:49:52;4.50;;;1.90;;
9374;SDS011;4727;51.202;6.344;2022-10-16T09:52:25;2.53;;;1.67;;
9374;SDS011;4727;51.202;6.344;2022-10-16T09:54:51;1.83;;;1.20;;
9374;SDS011;4727;51.202;6.344;2022-10-16T09:57:19;6.13;;;1.70;;
9374;SDS011;4727;51.202;6.344;2022-10-16T09:59:47;3.93;;;1.90;;
9374;SDS011;4727;51.202;6.344;2022-10-16T10:02:17;3.60;;;1.87;;
9374;SDS011;4727;51.202;6.344;2022-10-16T10:04:49;4.23;;;1.97;;
9374;SDS011;4727;51.202;6.344;2022-10-16T10:07:20;2.33;;;1.57;;
9374;SDS011;4727;51.202;6.344;2022-10-16T10:09:50;2.23;;;1.40;;
9374;SDS011;4727;51.202;6.344;2022-10-16T10:12:17;2.63;;;1.67;;
9374;SDS011;4727;51.202;6.344;2022-10-16T10:14:49;2.20;;;2.00;;
9374;SDS011;4727;51.202;6.344;2022-10-16T10:17:18;1.90;;;1.80;;
9374;SDS011;4727;51.202;6.344;2022-10-16T10:19:48;2.30;;;1.70;;
9374;SDS011;4727;51.202;6.344;2022-10-16T10:24:43;2.43;;;1.53;;
9374;SDS011;4727;51.202;6.344;2022-10-16T10:27:19;2.50;;;1.90;;
9374;SDS011;4727;51.202;6.344;2022-10-16T10:32:30;6.20;;;1.90;;
9374;SDS011;4727;51.202;6.344;2022-10-16T10:35:25;4.33;;;1.77;;
9374;SDS011;4727;51.202;6.344;2022-10-16T10:43:45;2.93;;;1.73;;
9374;SDS011;4727;51.202;6.344;2022-10-16T10:46:36;1.77;;;1.60;;
9374;SDS011;4727;51.202;6.344;2022-10-16T10:49:13;1.93;;;1.50;;
9374;SDS011;4727;51.202;6.344;2022-10-16T10:52:01;3.77;;;1.70;;
9374;SDS011;4727;51.202;6.344;2022-10-16T10:59:54;3.30;;;2.20;;
9374;SDS011;4727;51.202;6.344;2022-10-16T11:10:54;4.73;;;1.77;;
9374;SDS011;4727;51.202;6.344;2022-10-16T11:13:38;3.13;;;2.10;;
9374;SDS011;4727;51.202;6.344;2022-10-16T11:16:23;2.17;;;1.87;;
9374;SDS011;4727;51.202;6.344;2022-10-16T11:18:59;4.47;;;1.30;;
9374;SDS011;4727;51.202;6.344;2022-10-16T11:21:45;2.97;;;1.47;;
9374;SDS011;4727;51.202;6.344;2022-10-16T11:24:19;1.97;;;1.40;;
9374;SDS011;4727;51.202;6.344;2022-10-16T11:26:48;3.67;;;1.37;;
9374;SDS011;4727;51.202;6.344;2022-10-16T11:29:19;1.43;;;1.23;;
9374;SDS011;4727;51.202;6.344;2022-10-16T11:31:50;3.40;;;1.50;;
9374;SDS011;4727;51.202;6.344;2022-10-16T11:34:32;2.97;;;1.43;;
9374;SDS011;4727;51.202;6.344;2022-10-16T11:37:27;1.90;;;1.40;;
9374;SDS011;4727;51.202;6.344;2022-10-16T11:39:58;2.23;;;1.30;;
9374;SDS011;4727;51.202;6.344;2022-10-16T11:42:39;4.80;;;1.60;;
9374;SDS011;4727;51.202;6.344;2022-10-16T11:48:08;2.20;;;1.20;;
9374;SDS011;4727;51.202;6.344;2022-10-16T11:51:01;2.90;;;1.63;;
9374;SDS011;4727;51.202;6.344;2022-10-16T11:56:39;3.33;;;1.13;;
9374;SDS011;4727;51.202;6.344;2022-10-16T12:02:26;2.33;;;1.40;;
9374;SDS011;4727;51.202;6.344;2022-10-16T12:07:36;3.23;;;1.70;;
9374;SDS011;4727;51.202;6.344;2022-10-16T12:10:17;2.00;;;0.90;;
9374;SDS011;4727;51.202;6.344;2022-10-16T12:12:45;3.07;;;1.30;;
9374;SDS011;4727;51.202;6.344;2022-10-16T12:15:19;1.77;;;1.27;;
9374;SDS011;4727;51.202;6.344;2022-10-16T12:17:45;1.47;;;1.10;;
9374;SDS011;4727;51.202;6.344;2022-10-16T12:22:37;1.47;;;1.10;;
9374;SDS011;4727;51.202;6.344;2022-10-16T12:28:02;3.20;;;1.20;;
9374;SDS011;4727;51.202;6.344;2022-10-16T12:30:51;2.20;;;1.30;;
9374;SDS011;4727;51.202;6.344;2022-10-16T12:33:23;1.30;;;1.20;;
9374;SDS011;4727;51.202;6.344;2022-10-16T12:35:51;4.30;;;1.47;;
9374;SDS011;4727;51.202;6.344;2022-10-16T12:38:21;2.07;;;1.30;;
9374;SDS011;4727;51.202;6.344;2022-10-16T12:40:56;2.90;;;1.30;;
9374;SDS011;4727;51.202;6.344;2022-10-16T12:43:25;2.90;;;1.30;;
9374;SDS011;4727;51.202;6.344;2022-10-16T12:46:00;1.93;;;1.40;;
9374;SDS011;4727;51.202;6.344;2022-10-16T12:48:40;2.97;;;1.27;;
9374;SDS011;4727;51.202;6.344;2022-10-16T13:01:41;3.00;;;1.60;;
9374;SDS011;4727;51.202;6.344;2022-10-16T13:10:14;3.90;;;1.30;;
9374;SDS011;4727;51.202;6.344;2022-10-16T13:15:29;2.57;;;1.40;;
9374;SDS011;4727;51.202;6.344;2022-10-16T13:18:32;2.27;;;1.33;;
9374;SDS011;4727;51.202;6.344;2022-10-16T13:26:53;1.80;;;1.37;;
9374;SDS011;4727;51.202;6.344;2022-10-16T13:29:35;2.57;;;1.20;;
9374;SDS011;4727;51.202;6.344;2022-10-16T13:32:06;0.93;;;0.93;;
9374;SDS011;4727;51.202;6.344;2022-10-16T13:34:41;3.37;;;1.90;;
9374;SDS011;4727;51.202;6.344;2022-10-16T13:37:16;3.53;;;1.20;;
9374;SDS011;4727;51.202;6.344;2022-10-16T13:39:44;2.40;;;1.40;;
9374;SDS011;4727;51.202;6.344;2022-10-16T13:42:10;2.27;;;1.53;;
9374;SDS011;4727;51.202;6.344;2022-10-16T13:44:50;3.27;;;1.03;;
9374;SDS011;4727;51.202;6.344;2022-10-16T13:47:18;2.73;;;1.27;;
9374;SDS011;4727;51.202;6.344;2022-10-16T13:49:46;2.17;;;0.83;;
9374;SDS011;4727;51.202;6.344;2022-10-16T13:52:23;5.20;;;2.07;;
9374;SDS011;4727;51.202;6.344;2022-10-16T13:54:52;1.80;;;1.20;;
9374;SDS011;4727;51.202;6.344;2022-10-16T13:57:18;5.03;;;2.70;;
9374;SDS011;4727;51.202;6.344;2022-10-16T13:59:48;2.23;;;1.37;;
9374;SDS011;4727;51.202;6.344;2022-10-16T14:05:00;3.47;;;2.07;;
9374;SDS011;4727;51.202;6.344;2022-10-16T14:07:29;3.10;;;1.50;;
9374;SDS011;4727;51.202;6.344;2022-10-16T14:10:00;3.30;;;1.60;;
9374;SDS011;4727;51.202;6.344;2022-10-16T14:12:30;2.60;;;1.40;;
9374;SDS011;4727;51.202;6.344;2022-10-16T14:14:57;3.17;;;1.53;;
9374;SDS011;4727;51.202;6.344;2022-10-16T14:17:25;3.83;;;1.63;;
9374;SDS011;4727;51.202;6.344;2022-10-16T14:19:56;1.50;;;1.33;;
9374;SDS011;4727;51.202;6.344;2022-10-16T14:22:30;2.53;;;1.57;;
9374;SDS011;4727;51.202;6.344;2022-10-16T14:24:59;1.43;;;1.33;;
9374;SDS011;4727;51.202;6.344;2022-10-16T14:27:32;1.50;;;1.33;;
9374;SDS011;4727;51.202;6.344;2022-10-16T14:32:37;1.20;;;0.93;;
9374;SDS011;4727;51.202;6.344;2022-10-16T14:35:21;2.83;;;2.07;;
9374;SDS011;4727;51.202;6.344;2022-10-16T14:37:54;2.23;;;1.77;;
9374;SDS011;4727;51.202;6.344;2022-10-16T14:40:26;3.83;;;2.30;;
9374;SDS011;4727;51.202;6.344;2022-10-16T14:42:56;1.80;;;1.47;;
9374;SDS011;4727;51.202;6.344;2022-10-16T14:45:27;1.57;;;1.10;;
9374;SDS011;4727;51.202;6.344;2022-10-16T14:47:56;3.33;;;1.90;;
9374;SDS011;4727;51.202;6.344;2022-10-16T14:50:23;14.27;;;5.53;;
9374;SDS011;4727;51.202;6.344;2022-10-16T14:52:49;8.90;;;5.80;;
9374;SDS011;4727;51.202;6.344;2022-10-16T14:55:15;7.83;;;4.73;;
9374;SDS011;4727;51.202;6.344;2022-10-16T14:57:42;6.70;;;3.43;;
9374;SDS011;4727;51.202;6.344;2022-10-16T15:00:16;4.30;;;2.80;;
9374;SDS011;4727;51.202;6.344;2022-10-16T15:02:44;2.87;;;1.60;;
9374;SDS011;4727;51.202;6.344;2022-10-16T15:05:15;3.67;;;1.63;;
9374;SDS011;4727;51.202;6.344;2022-10-16T15:07:43;2.63;;;2.20;;
9374;SDS011;4727;51.202;6.344;2022-10-16T15:10:10;4.03;;;1.57;;
9374;SDS011;4727;51.202;6.344;2022-10-16T15:12:37;2.13;;;1.60;;
9374;SDS011;4727;51.202;6.344;2022-10-16T15:15:11;1.87;;;1.77;;
9374;SDS011;4727;51.202;6.344;2022-10-16T15:17:46;2.80;;;1.80;;
9374;SDS011;4727;51.202;6.344;2022-10-16T15:20:12;4.23;;;1.93;;
9374;SDS011;4727;51.202;6.344;2022-10-16T15:22:38;3.53;;;3.30;;
9374;SDS011;4727;51.202;6.344;2022-10-16T15:25:10;3.80;;;2.43;;
9374;SDS011;4727;51.202;6.344;2022-10-16T15:27:53;4.23;;;2.03;;
9374;SDS011;4727;51.202;6.344;2022-10-16T15:30:19;2.73;;;2.07;;
9374;SDS011;4727;51.202;6.344;2022-10-16T15:32:44;3.73;;;2.20;;
9374;SDS011;4727;51.202;6.344;2022-10-16T15:35:10;4.60;;;2.27;;
9374;SDS011;4727;51.202;6.344;2022-10-16T15:37:36;2.57;;;2.13;;
9374;SDS011;4727;51.202;6.344;2022-10-16T15:40:01;2.50;;;1.53;;
9374;SDS011;4727;51.202;6.344;2022-10-16T15:42:27;3.20;;;1.80;;
9374;SDS011;4727;51.202;6.344;2022-10-16T15:44:53;2.00;;;1.80;;
9374;SDS011;4727;51.202;6.344;2022-10-16T15:47:18;2.33;;;1.53;;
9374;SDS011;4727;51.202;6.344;2022-10-16T15:49:44;1.73;;;1.47;;
9374;SDS011;4727;51.202;6.344;2022-10-16T15:52:10;2.50;;;1.93;;
9374;SDS011;4727;51.202;6.344;2022-10-16T15:54:36;1.97;;;1.80;;
9374;SDS011;4727;51.202;6.344;2022-10-16T15:57:02;3.60;;;2.13;;
9374;SDS011;4727;51.202;6.344;2022-10-16T15:59:27;2.00;;;1.87;;
9374;SDS011;4727;51.202;6.344;2022-10-16T16:01:53;2.67;;;1.63;;
9374;SDS011;4727;51.202;6.344;2022-10-16T16:04:18;5.20;;;3.67;;
9374;SDS011;4727;51.202;6.344;2022-10-16T16:06:44;2.73;;;2.30;;
9374;SDS011;4727;51.202;6.344;2022-10-16T16:09:10;2.93;;;2.60;;
9374;SDS011;4727;51.202;6.344;2022-10-16T16:11:37;2.90;;;2.30;;
9374;SDS011;4727;51.202;6.344;2022-10-16T16:14:04;2.40;;;2.20;;
9374;SDS011;4727;51.202;6.344;2022-10-16T16:16:31;2.97;;;2.67;;
9374;SDS011;4727;51.202;6.344;2022-10-16T16:19:01;4.53;;;2.90;;
9374;SDS011;4727;51.202;6.344;2022-10-16T16:21:27;5.37;;;4.07;;
9374;SDS011;4727;51.202;6.344;2022-10-16T16:23:53;4.37;;;3.57;;
9374;SDS011;4727;51.202;6.344;2022-10-16T16:26:23;9.90;;;3.70;;
9374;SDS011;4727;51.202;6.344;2022-10-16T16:28:51;3.50;;;3.20;;
9374;SDS011;4727;51.202;6.344;2022-10-16T16:31:17;5.60;;;3.40;;
9374;SDS011;4727;51.202;6.344;2022-10-16T16:33:43;4.43;;;3.33;;
9374;SDS011;4727;51.202;6.344;2022-10-16T16:36:08;5.37;;;3.30;;
9374;SDS011;4727;51.202;6.344;2022-10-16T16:38:34;5.30;;;3.00;;
9374;SDS011;4727;51.202;6.344;2022-10-16T16:41:09;5.23;;;2.50;;
9374;SDS011;4727;51.202;6.344;2022-10-16T16:43:39;3.03;;;2.47;;
9374;SDS011;4727;51.202;6.344;2022-10-16T16:46:05;4.27;;;2.80;;
9374;SDS011;4727;51.202;6.344;2022-10-16T16:48:31;4.73;;;2.60;;
9374;SDS011;4727;51.202;6.344;2022-10-16T16:51:02;3.03;;;2.23;;
9374;SDS011;4727;51.202;6.344;2022-10-16T16:53:36;5.03;;;2.80;;
9374;SDS011;4727;51.202;6.344;2022-10-16T16:56:02;5.03;;;2.70;;
9374;SDS011;4727;51.202;6.344;2022-10-16T16:58:30;3.57;;;3.00;;
9374;SDS011;4727;51.202;6.344;2022-10-16T17:00:56;7.57;;;3.17;;
9374;SDS011;4727;51.202;6.344;2022-10-16T17:03:25;6.30;;;3.07;;
9374;SDS011;4727;51.202;6.344;2022-10-16T17:06:05;5.83;;;3.30;;
9374;SDS011;4727;51.202;6.344;2022-10-16T17:08:32;6.83;;;3.80;;
9374;SDS011;4727;51.202;6.344;2022-10-16T17:10:59;6.27;;;4.00;;
9374;SDS011;4727;51.202;6.344;2022-10-16T17:13:26;5.63;;;3.47;;